Jarreau, Louisiana
Current Conditions -  °F | °C
As of 7:35 PM on Tuesday 21 Oct 2014 (Local Time) from KHZR Reporting Station
Clear Clear  
Wind Chill: 66°   Ceiling: Unl
Heat Index: 66°   Visibility: 10mi
Dew Point: 60°   Wind: 3mph
Humidity: 80%   Direction: 360°N
Pressure: 30.01"   Gusts: NA
Location:  30.63°N, 91.45°W
Report Text: KHZR 220035Z AUTO 36003KT 10SM CLR 19/16 A3001 RMK AO2 T01910156
Loading
Personal Weather Stations






























Interactive Weather Map
Tropical Storm Tracking
New forecast layout! Learn more

10-Day Weather Forecast

Advertisements
Track Severe Weather on mobile